sensor_id;sensor_type;location;lat;lon;timestamp;pressure;altitude;pressure_sealevel;temperature;humidity
32081;BME280;18593;51.426;7.030;2023-03-01T00:02:03;101987.19;;;2.93;50.56
32081;BME280;18593;51.426;7.030;2023-03-01T00:04:34;101984.66;;;2.91;50.71
32081;BME280;18593;51.426;7.030;2023-03-01T00:07:03;101989.25;;;2.89;50.68
32081;BME280;18593;51.426;7.030;2023-03-01T00:09:39;101992.84;;;2.88;50.50
32081;BME280;18593;51.426;7.030;2023-03-01T00:12:11;101993.78;;;2.87;50.86
32081;BME280;18593;51.426;7.030;2023-03-01T00:14:38;101995.59;;;2.87;50.62
32081;BME280;18593;51.426;7.030;2023-03-01T00:17:07;101986.00;;;2.86;50.53
32081;BME280;18593;51.426;7.030;2023-03-01T00:19:37;101990.44;;;2.85;50.51
32081;BME280;18593;51.426;7.030;2023-03-01T00:22:19;101979.44;;;2.80;50.74
32081;BME280;18593;51.426;7.030;2023-03-01T00:24:47;101985.41;;;2.82;50.77
32081;BME280;18593;51.426;7.030;2023-03-01T00:27:23;101976.94;;;2.78;50.60
32081;BME280;18593;51.426;7.030;2023-03-01T00:29:50;101979.56;;;2.78;50.66
32081;BME280;18593;51.426;7.030;2023-03-01T00:32:19;101971.91;;;2.75;50.79
32081;BME280;18593;51.426;7.030;2023-03-01T00:34:46;101971.19;;;2.73;50.99
32081;BME280;18593;51.426;7.030;2023-03-01T00:37:21;101973.72;;;2.75;51.01
32081;BME280;18593;51.426;7.030;2023-03-01T00:39:48;101966.50;;;2.77;50.69
32081;BME280;18593;51.426;7.030;2023-03-01T00:42:15;101970.47;;;2.71;50.80
32081;BME280;18593;51.426;7.030;2023-03-01T00:44:43;101971.66;;;2.67;51.03
32081;BME280;18593;51.426;7.030;2023-03-01T00:47:10;101966.31;;;2.69;50.89
32081;BME280;18593;51.426;7.030;2023-03-01T00:49:37;101965.56;;;2.67;50.97
32081;BME280;18593;51.426;7.030;2023-03-01T00:52:04;101957.66;;;2.67;50.80
32081;BME280;18593;51.426;7.030;2023-03-01T00:54:31;101955.88;;;2.67;50.85
32081;BME280;18593;51.426;7.030;2023-03-01T00:56:58;101948.94;;;2.66;50.92
32081;BME280;18593;51.426;7.030;2023-03-01T00:59:25;101944.50;;;2.67;50.99
32081;BME280;18593;51.426;7.030;2023-03-01T01:01:53;101954.34;;;2.65;51.05
32081;BME280;18593;51.426;7.030;2023-03-01T01:04:21;101945.84;;;2.61;51.26
32081;BME280;18593;51.426;7.030;2023-03-01T01:06:48;101948.22;;;2.64;50.96
32081;BME280;18593;51.426;7.030;2023-03-01T01:09:16;101949.53;;;2.58;51.26
32081;BME280;18593;51.426;7.030;2023-03-01T01:11:45;101948.13;;;2.54;51.29
32081;BME280;18593;51.426;7.030;2023-03-01T01:14:13;101938.66;;;2.52;51.49
32081;BME280;18593;51.426;7.030;2023-03-01T01:16:40;101931.59;;;2.52;51.39
32081;BME280;18593;51.426;7.030;2023-03-01T01:19:09;101937.00;;;2.51;51.18
32081;BME280;18593;51.426;7.030;2023-03-01T01:21:36;101925.25;;;2.55;51.25
32081;BME280;18593;51.426;7.030;2023-03-01T01:24:03;101928.59;;;2.57;50.81
32081;BME280;18593;51.426;7.030;2023-03-01T01:26:32;101923.59;;;2.54;50.99
32081;BME280;18593;51.426;7.030;2023-03-01T01:29:00;101912.47;;;2.50;50.89
32081;BME280;18593;51.426;7.030;2023-03-01T01:31:31;101909.09;;;2.48;50.98
32081;BME280;18593;51.426;7.030;2023-03-01T01:33:59;101917.97;;;2.47;51.07
32081;BME280;18593;51.426;7.030;2023-03-01T01:36:28;101908.16;;;2.49;50.75
32081;BME280;18593;51.426;7.030;2023-03-01T01:38:55;101903.84;;;2.48;50.83
32081;BME280;18593;51.426;7.030;2023-03-01T01:41:23;101903.00;;;2.48;50.67
32081;BME280;18593;51.426;7.030;2023-03-01T01:44:16;101899.66;;;2.46;50.84
32081;BME280;18593;51.426;7.030;2023-03-01T01:46:44;101911.41;;;2.42;51.02
32081;BME280;18593;51.426;7.030;2023-03-01T01:49:18;101906.00;;;2.43;50.89
32081;BME280;18593;51.426;7.030;2023-03-01T01:51:48;101892.72;;;2.45;50.89
32081;BME280;18593;51.426;7.030;2023-03-01T01:54:18;101897.03;;;2.46;50.67
32081;BME280;18593;51.426;7.030;2023-03-01T01:56:48;101900.03;;;2.41;50.89
32081;BME280;18593;51.426;7.030;2023-03-01T01:59:17;101905.66;;;2.37;50.87
32081;BME280;18593;51.426;7.030;2023-03-01T02:01:44;101906.72;;;2.34;51.01
32081;BME280;18593;51.426;7.030;2023-03-01T02:04:11;101914.53;;;2.36;51.18
32081;BME280;18593;51.426;7.030;2023-03-01T02:06:41;101915.59;;;2.33;51.13
32081;BME280;18593;51.426;7.030;2023-03-01T02:09:13;101915.94;;;2.28;50.90
32081;BME280;18593;51.426;7.030;2023-03-01T02:11:42;101907.00;;;2.31;51.01
32081;BME280;18593;51.426;7.030;2023-03-01T02:14:10;101901.13;;;2.27;51.12
32081;BME280;18593;51.426;7.030;2023-03-01T02:16:37;101894.31;;;2.25;51.32
32081;BME280;18593;51.426;7.030;2023-03-01T02:19:04;101903.88;;;2.26;51.34
32081;BME280;18593;51.426;7.030;2023-03-01T02:21:41;101901.34;;;2.24;51.16
32081;BME280;18593;51.426;7.030;2023-03-01T02:24:25;101887.38;;;2.24;51.35
32081;BME280;18593;51.426;7.030;2023-03-01T02:26:56;101891.69;;;2.25;50.75
32081;BME280;18593;51.426;7.030;2023-03-01T02:29:24;101886.66;;;2.22;51.08
32081;BME280;18593;51.426;7.030;2023-03-01T02:31:52;101888.69;;;2.18;51.08
32081;BME280;18593;51.426;7.030;2023-03-01T02:34:23;101891.09;;;2.21;51.15
32081;BME280;18593;51.426;7.030;2023-03-01T02:36:55;101888.59;;;2.20;50.93
32081;BME280;18593;51.426;7.030;2023-03-01T02:39:25;101887.03;;;2.17;50.98
32081;BME280;18593;51.426;7.030;2023-03-01T02:41:54;101890.72;;;2.15;50.97
32081;BME280;18593;51.426;7.030;2023-03-01T02:44:21;101888.22;;;2.13;51.20
32081;BME280;18593;51.426;7.030;2023-03-01T02:46:52;101885.47;;;2.15;50.74
32081;BME280;18593;51.426;7.030;2023-03-01T02:49:22;101888.34;;;2.12;50.96
32081;BME280;18593;51.426;7.030;2023-03-01T02:52:04;101877.81;;;2.12;51.23
32081;BME280;18593;51.426;7.030;2023-03-01T02:54:38;101880.47;;;2.12;50.85
32081;BME280;18593;51.426;7.030;2023-03-01T02:57:06;101885.25;;;2.06;50.96
32081;BME280;18593;51.426;7.030;2023-03-01T02:59:35;101884.03;;;1.99;51.15
32081;BME280;18593;51.426;7.030;2023-03-01T03:02:08;101894.69;;;1.98;51.34
32081;BME280;18593;51.426;7.030;2023-03-01T03:04:45;101893.03;;;1.97;51.31
32081;BME280;18593;51.426;7.030;2023-03-01T03:07:13;101892.41;;;1.93;51.37
32081;BME280;18593;51.426;7.030;2023-03-01T03:09:40;101884.16;;;1.98;51.20
32081;BME280;18593;51.426;7.030;2023-03-01T03:12:07;101886.66;;;1.99;51.08
32081;BME280;18593;51.426;7.030;2023-03-01T03:14:34;101883.69;;;1.93;51.27
32081;BME280;18593;51.426;7.030;2023-03-01T03:17:01;101883.69;;;1.93;51.35
32081;BME280;18593;51.426;7.030;2023-03-01T03:19:33;101877.81;;;1.89;51.29
32081;BME280;18593;51.426;7.030;2023-03-01T03:22:00;101884.06;;;1.88;51.37
32081;BME280;18593;51.426;7.030;2023-03-01T03:24:27;101886.56;;;1.90;51.35
32081;BME280;18593;51.426;7.030;2023-03-01T03:27:03;101883.34;;;1.86;51.81
32081;BME280;18593;51.426;7.030;2023-03-01T03:29:30;101883.44;;;1.85;51.45
32081;BME280;18593;51.426;7.030;2023-03-01T03:31:58;101880.09;;;1.83;51.54
32081;BME280;18593;51.426;7.030;2023-03-01T03:34:24;101871.38;;;1.82;51.54
32081;BME280;18593;51.426;7.030;2023-03-01T03:36:54;101876.66;;;1.82;51.67
32081;BME280;18593;51.426;7.030;2023-03-01T03:39:25;101871.13;;;1.85;51.34
32081;BME280;18593;51.426;7.030;2023-03-01T03:41:52;101868.75;;;1.82;51.39
32081;BME280;18593;51.426;7.030;2023-03-01T03:44:19;101869.81;;;1.79;51.46
32081;BME280;18593;51.426;7.030;2023-03-01T03:46:46;101873.28;;;1.80;51.26
32081;BME280;18593;51.426;7.030;2023-03-01T03:49:13;101860.38;;;1.77;51.45
32081;BME280;18593;51.426;7.030;2023-03-01T03:51:40;101864.91;;;1.75;51.68
32081;BME280;18593;51.426;7.030;2023-03-01T03:54:09;101861.72;;;1.71;51.56
32081;BME280;18593;51.426;7.030;2023-03-01T03:56:36;101850.09;;;1.74;51.47
32081;BME280;18593;51.426;7.030;2023-03-01T03:59:03;101849.13;;;1.75;51.58
32081;BME280;18593;51.426;7.030;2023-03-01T04:01:31;101841.50;;;1.72;51.58
32081;BME280;18593;51.426;7.030;2023-03-01T04:03:58;101839.94;;;1.69;51.53
32081;BME280;18593;51.426;7.030;2023-03-01T04:06:30;101838.13;;;1.70;51.81
32081;BME280;18593;51.426;7.030;2023-03-01T04:08:57;101841.50;;;1.72;51.56
32081;BME280;18593;51.426;7.030;2023-03-01T04:11:27;101835.50;;;1.70;51.66
32081;BME280;18593;51.426;7.030;2023-03-01T04:13:57;101832.88;;;1.70;51.65
32081;BME280;18593;51.426;7.030;2023-03-01T04:16:24;101834.81;;;1.68;51.58
32081;BME280;18593;51.426;7.030;2023-03-01T04:18:52;101835.16;;;1.63;51.68
32081;BME280;18593;51.426;7.030;2023-03-01T04:21:20;101835.88;;;1.65;51.57
32081;BME280;18593;51.426;7.030;2023-03-01T04:23:47;101833.97;;;1.67;51.67
32081;BME280;18593;51.426;7.030;2023-03-01T04:26:19;101838.75;;;1.62;51.65
32081;BME280;18593;51.426;7.030;2023-03-01T04:28:47;101836.13;;;1.62;51.54
32081;BME280;18593;51.426;7.030;2023-03-01T04:31:17;101836.81;;;1.64;51.33
32081;BME280;18593;51.426;7.030;2023-03-01T04:33:47;101840.53;;;1.62;51.53
32081;BME280;18593;51.426;7.030;2023-03-01T04:36:15;101840.53;;;1.62;51.48
32081;BME280;18593;51.426;7.030;2023-03-01T04:38:43;101838.75;;;1.62;51.54
32081;BME280;18593;51.426;7.030;2023-03-01T04:41:13;101845.19;;;1.58;51.52
32081;BME280;18593;51.426;7.030;2023-03-01T04:43:41;101840.78;;;1.59;51.50
32081;BME280;18593;51.426;7.030;2023-03-01T04:46:11;101847.69;;;1.60;51.39
32081;BME280;18593;51.426;7.030;2023-03-01T04:48:40;101839.09;;;1.58;51.33
32081;BME280;18593;51.426;7.030;2023-03-01T04:51:07;101841.97;;;1.54;51.50
32081;BME280;18593;51.426;7.030;2023-03-01T04:53:35;101829.66;;;1.55;51.46
32081;BME280;18593;51.426;7.030;2023-03-01T04:56:03;101834.34;;;1.51;51.51
32081;BME280;18593;51.426;7.030;2023-03-01T04:58:30;101827.28;;;1.52;51.41
32081;BME280;18593;51.426;7.030;2023-03-01T05:00:57;101837.66;;;1.53;51.51
32081;BME280;18593;51.426;7.030;2023-03-01T05:03:26;101837.88;;;1.50;51.55
32081;BME280;18593;51.426;7.030;2023-03-01T05:05:53;101830.25;;;1.47;51.65
32081;BME280;18593;51.426;7.030;2023-03-01T05:08:20;101821.53;;;1.47;51.66
32081;BME280;18593;51.426;7.030;2023-03-01T05:10:49;101828.69;;;1.45;52.12
32081;BME280;18593;51.426;7.030;2023-03-01T05:13:17;101820.94;;;1.43;51.52
32081;BME280;18593;51.426;7.030;2023-03-01T05:15:47;101819.28;;;1.42;51.77
32081;BME280;18593;51.426;7.030;2023-03-01T05:18:15;101813.19;;;1.42;51.52
32081;BME280;18593;51.426;7.030;2023-03-01T05:20:43;101817.56;;;1.41;51.43
32081;BME280;18593;51.426;7.030;2023-03-01T05:23:11;101820.59;;;1.37;51.73
32081;BME280;18593;51.426;7.030;2023-03-01T05:25:38;101815.06;;;1.40;51.71
32081;BME280;18593;51.426;7.030;2023-03-01T05:28:08;101812.69;;;1.37;51.73
32081;BME280;18593;51.426;7.030;2023-03-01T05:30:37;101810.06;;;1.37;51.60
32081;BME280;18593;51.426;7.030;2023-03-01T05:33:05;101808.00;;;1.40;51.55
32081;BME280;18593;51.426;7.030;2023-03-01T05:35:39;101804.56;;;1.40;51.54
32081;BME280;18593;51.426;7.030;2023-03-01T05:38:08;101815.19;;;1.38;51.65
32081;BME280;18593;51.426;7.030;2023-03-01T05:40:38;101800.13;;;1.40;52.21
32081;BME280;18593;51.426;7.030;2023-03-01T05:43:06;101804.81;;;1.37;51.99
32081;BME280;18593;51.426;7.030;2023-03-01T05:45:33;101803.72;;;1.39;52.22
32081;BME280;18593;51.426;7.030;2023-03-01T05:48:02;101815.91;;;1.40;52.07
32081;BME280;18593;51.426;7.030;2023-03-01T05:50:33;101810.91;;;1.37;52.04
32081;BME280;18593;51.426;7.030;2023-03-01T05:53:01;101818.03;;;1.35;52.30
32081;BME280;18593;51.426;7.030;2023-03-01T05:55:37;101822.69;;;1.32;52.52
32081;BME280;18593;51.426;7.030;2023-03-01T05:58:06;101806.94;;;1.32;52.67
32081;BME280;18593;51.426;7.030;2023-03-01T06:00:33;101819.38;;;1.29;52.69
32081;BME280;18593;51.426;7.030;2023-03-01T06:03:01;101813.28;;;1.29;52.71
32081;BME280;18593;51.426;7.030;2023-03-01T06:05:29;101809.06;;;1.26;52.84
32081;BME280;18593;51.426;7.030;2023-03-01T06:07:58;101800.25;;;1.27;52.63
32081;BME280;18593;51.426;7.030;2023-03-01T06:10:25;101806.09;;;1.20;52.88
32081;BME280;18593;51.426;7.030;2023-03-01T06:12:54;101808.25;;;1.26;53.02
32081;BME280;18593;51.426;7.030;2023-03-01T06:15:21;101800.00;;;1.31;52.62
32081;BME280;18593;51.426;7.030;2023-03-01T06:17:48;101809.19;;;1.36;53.04
32081;BME280;18593;51.426;7.030;2023-03-01T06:20:17;101797.84;;;1.36;52.91
32081;BME280;18593;51.426;7.030;2023-03-01T06:22:44;101800.38;;;1.37;52.90
32081;BME280;18593;51.426;7.030;2023-03-01T06:25:13;101803.59;;;1.41;52.77
32081;BME280;18593;51.426;7.030;2023-03-01T06:27:41;101802.53;;;1.43;53.14
32081;BME280;18593;51.426;7.030;2023-03-01T06:30:11;101801.44;;;1.46;52.96
32081;BME280;18593;51.426;7.030;2023-03-01T06:32:39;101800.97;;;1.41;53.02
32081;BME280;18593;51.426;7.030;2023-03-01T06:35:08;101805.16;;;1.43;53.18
32081;BME280;18593;51.426;7.030;2023-03-01T06:37:35;101796.91;;;1.48;52.97
32081;BME280;18593;51.426;7.030;2023-03-01T06:40:02;101800.38;;;1.48;52.92
32081;BME280;18593;51.426;7.030;2023-03-01T06:42:34;101793.56;;;1.46;53.18
32081;BME280;18593;51.426;7.030;2023-03-01T06:45:01;101800.59;;;1.45;53.20
32081;BME280;18593;51.426;7.030;2023-03-01T06:47:29;101796.31;;;1.44;53.27
32081;BME280;18593;51.426;7.030;2023-03-01T06:49:56;101804.69;;;1.49;53.59
32081;BME280;18593;51.426;7.030;2023-03-01T06:52:23;101801.91;;;1.51;53.38
32081;BME280;18593;51.426;7.030;2023-03-01T06:54:50;101802.06;;;1.49;53.47
32081;BME280;18593;51.426;7.030;2023-03-01T06:57:17;101797.03;;;1.46;53.44
32081;BME280;18593;51.426;7.030;2023-03-01T06:59:44;101799.66;;;1.46;53.75
32081;BME280;18593;51.426;7.030;2023-03-01T07:02:11;101797.75;;;1.48;53.77
32081;BME280;18593;51.426;7.030;2023-03-01T07:04:40;101794.16;;;1.49;53.91
32081;BME280;18593;51.426;7.030;2023-03-01T07:07:07;101801.09;;;1.50;53.82
32081;BME280;18593;51.426;7.030;2023-03-01T07:09:34;101799.91;;;1.54;54.14
32081;BME280;18593;51.426;7.030;2023-03-01T07:12:01;101795.38;;;1.57;53.95
32081;BME280;18593;51.426;7.030;2023-03-01T07:14:29;101799.53;;;1.59;54.22
32081;BME280;18593;51.426;7.030;2023-03-01T07:16:56;101791.78;;;1.58;54.14
32081;BME280;18593;51.426;7.030;2023-03-01T07:19:23;101785.44;;;1.60;54.31
32081;BME280;18593;51.426;7.030;2023-03-01T07:21:51;101783.41;;;1.64;54.15
32081;BME280;18593;51.426;7.030;2023-03-01T07:24:18;101789.13;;;1.69;54.16
32081;BME280;18593;51.426;7.030;2023-03-01T07:26:48;101784.00;;;1.67;54.16
32081;BME280;18593;51.426;7.030;2023-03-01T07:29:15;101773.38;;;1.69;54.38
32081;BME280;18593;51.426;7.030;2023-03-01T07:31:42;101769.44;;;1.63;54.16
32081;BME280;18593;51.426;7.030;2023-03-01T07:34:09;101770.25;;;1.64;54.30
32081;BME280;18593;51.426;7.030;2023-03-01T07:36:36;101767.50;;;1.65;54.41
32081;BME280;18593;51.426;7.030;2023-03-01T07:39:06;101779.59;;;1.68;54.55
32081;BME280;18593;51.426;7.030;2023-03-01T07:41:33;101767.13;;;1.70;54.55
32081;BME280;18593;51.426;7.030;2023-03-01T07:44:00;101776.34;;;1.75;54.84
32081;BME280;18593;51.426;7.030;2023-03-01T07:46:27;101776.94;;;1.79;54.77
32081;BME280;18593;51.426;7.030;2023-03-01T07:48:54;101772.41;;;1.81;54.78
32081;BME280;18593;51.426;7.030;2023-03-01T07:51:21;101775.59;;;1.85;54.58
32081;BME280;18593;51.426;7.030;2023-03-01T07:53:48;101773.56;;;1.88;54.72
32081;BME280;18593;51.426;7.030;2023-03-01T07:56:16;101776.81;;;1.92;54.80
32081;BME280;18593;51.426;7.030;2023-03-01T07:58:44;101780.97;;;1.94;54.75
32081;BME280;18593;51.426;7.030;2023-03-01T08:01:13;101778.00;;;1.88;54.83
32081;BME280;18593;51.426;7.030;2023-03-01T08:03:40;101783.25;;;1.88;54.73
32081;BME280;18593;51.426;7.030;2023-03-01T08:06:08;101783.13;;;1.89;54.93
32081;BME280;18593;51.426;7.030;2023-03-01T08:08:36;101779.31;;;1.93;55.20
32081;BME280;18593;51.426;7.030;2023-03-01T08:11:05;101786.69;;;1.99;54.96
32081;BME280;18593;51.426;7.030;2023-03-01T08:13:34;101787.16;;;2.04;55.11
32081;BME280;18593;51.426;7.030;2023-03-01T08:16:01;101787.06;;;2.06;55.27
32081;BME280;18593;51.426;7.030;2023-03-01T08:18:29;101779.88;;;2.08;54.81
32081;BME280;18593;51.426;7.030;2023-03-01T08:21:00;101773.63;;;2.09;54.85
32081;BME280;18593;51.426;7.030;2023-03-01T08:23:27;101780.19;;;2.15;54.96
32081;BME280;18593;51.426;7.030;2023-03-01T08:26:02;101782.72;;;2.16;54.87
32081;BME280;18593;51.426;7.030;2023-03-01T08:28:29;101780.94;;;2.17;54.47
32081;BME280;18593;51.426;7.030;2023-03-01T08:30:57;101782.13;;;2.13;54.50
32081;BME280;18593;51.426;7.030;2023-03-01T08:33:24;101780.47;;;2.12;54.54
32081;BME280;18593;51.426;7.030;2023-03-01T08:35:51;101778.28;;;2.17;54.53
32081;BME280;18593;51.426;7.030;2023-03-01T08:38:18;101779.72;;;2.21;54.56
32081;BME280;18593;51.426;7.030;2023-03-01T08:40:45;101765.34;;;2.25;54.61
32081;BME280;18593;51.426;7.030;2023-03-01T08:43:12;101767.72;;;2.28;54.50
32081;BME280;18593;51.426;7.030;2023-03-01T08:45:39;101765.81;;;2.30;54.05
32081;BME280;18593;51.426;7.030;2023-03-01T08:48:08;101765.09;;;2.28;53.96
32081;BME280;18593;51.426;7.030;2023-03-01T08:50:35;101764.03;;;2.30;54.01
32081;BME280;18593;51.426;7.030;2023-03-01T08:53:02;101760.88;;;2.37;54.04
32081;BME280;18593;51.426;7.030;2023-03-01T08:55:28;101759.72;;;2.29;53.95
32081;BME280;18593;51.426;7.030;2023-03-01T08:57:55;101750.56;;;2.13;53.04
32081;BME280;18593;51.426;7.030;2023-03-01T09:00:24;101753.41;;;2.21;53.37
32081;BME280;18593;51.426;7.030;2023-03-01T09:02:51;101750.13;;;2.28;53.64
32081;BME280;18593;51.426;7.030;2023-03-01T09:05:20;101750.50;;;2.24;53.35
32081;BME280;18593;51.426;7.030;2023-03-01T09:07:47;101750.97;;;2.29;53.90
32081;BME280;18593;51.426;7.030;2023-03-01T09:10:14;101749.00;;;2.42;53.67
32081;BME280;18593;51.426;7.030;2023-03-01T09:12:41;101755.81;;;2.45;52.99
32081;BME280;18593;51.426;7.030;2023-03-01T09:15:09;101749.72;;;2.44;53.10
32081;BME280;18593;51.426;7.030;2023-03-01T09:17:36;101742.53;;;2.46;53.01
32081;BME280;18593;51.426;7.030;2023-03-01T09:20:04;101742.16;;;2.51;52.56
32081;BME280;18593;51.426;7.030;2023-03-01T09:22:34;101742.66;;;2.45;52.14
32081;BME280;18593;51.426;7.030;2023-03-01T09:25:01;101742.97;;;2.51;52.28
32081;BME280;18593;51.426;7.030;2023-03-01T09:27:28;101747.03;;;2.55;52.31
32081;BME280;18593;51.426;7.030;2023-03-01T09:29:55;101731.94;;;2.57;51.94
32081;BME280;18593;51.426;7.030;2023-03-01T09:32:22;101736.22;;;2.58;51.76
32081;BME280;18593;51.426;7.030;2023-03-01T09:34:49;101732.38;;;2.63;51.86
32081;BME280;18593;51.426;7.030;2023-03-01T09:37:31;101723.41;;;2.65;51.58
32081;BME280;18593;51.426;7.030;2023-03-01T09:40:00;101717.16;;;2.66;51.80
32081;BME280;18593;51.426;7.030;2023-03-01T09:42:27;101717.03;;;2.68;51.72
32081;BME280;18593;51.426;7.030;2023-03-01T09:44:59;101711.38;;;2.72;51.52
32081;BME280;18593;51.426;7.030;2023-03-01T09:47:29;101709.00;;;2.69;50.89
32081;BME280;18593;51.426;7.030;2023-03-01T09:50:00;101718.44;;;2.72;51.02
32081;BME280;18593;51.426;7.030;2023-03-01T09:52:32;101711.00;;;2.77;50.78
32081;BME280;18593;51.426;7.030;2023-03-01T09:55:08;101725.25;;;2.74;50.96
32081;BME280;18593;51.426;7.030;2023-03-01T09:57:38;101720.84;;;2.75;50.60
32081;BME280;18593;51.426;7.030;2023-03-01T10:00:23;101714.59;;;2.76;51.00
32081;BME280;18593;51.426;7.030;2023-03-01T10:02:56;101729.44;;;2.77;50.88
32081;BME280;18593;51.426;7.030;2023-03-01T10:05:31;101707.66;;;2.75;50.59
32081;BME280;18593;51.426;7.030;2023-03-01T10:08:18;101725.56;;;2.81;50.57
32081;BME280;18593;51.426;7.030;2023-03-01T10:10:48;101719.47;;;2.80;50.45
32081;BME280;18593;51.426;7.030;2023-03-01T10:13:17;101705.09;;;2.84;49.95
32081;BME280;18593;51.426;7.030;2023-03-01T10:15:48;101702.75;;;2.91;50.22
32081;BME280;18593;51.426;7.030;2023-03-01T10:18:22;101709.56;;;2.94;49.74
32081;BME280;18593;51.426;7.030;2023-03-01T10:20:52;101707.31;;;2.89;49.41
32081;BME280;18593;51.426;7.030;2023-03-01T10:23:20;101696.50;;;2.92;49.54
32081;BME280;18593;51.426;7.030;2023-03-01T10:25:56;101696.13;;;2.97;49.50
32081;BME280;18593;51.426;7.030;2023-03-01T10:28:31;101689.03;;;2.97;49.13
32081;BME280;18593;51.426;7.030;2023-03-01T10:31:04;101700.56;;;2.96;48.93
32081;BME280;18593;51.426;7.030;2023-03-01T10:33:32;101695.03;;;2.99;48.45
32081;BME280;18593;51.426;7.030;2023-03-01T10:36:02;101687.81;;;3.01;48.62
32081;BME280;18593;51.426;7.030;2023-03-01T10:38:30;101686.72;;;3.04;49.05
32081;BME280;18593;51.426;7.030;2023-03-01T10:41:00;101683.13;;;3.05;48.54
32081;BME280;18593;51.426;7.030;2023-03-01T10:43:40;101687.16;;;3.09;48.49
32081;BME280;18593;51.426;7.030;2023-03-01T10:46:27;101669.41;;;3.11;48.37
32081;BME280;18593;51.426;7.030;2023-03-01T10:49:21;101669.41;;;3.11;48.00
32081;BME280;18593;51.426;7.030;2023-03-01T10:51:52;101663.16;;;3.12;48.27
32081;BME280;18593;51.426;7.030;2023-03-01T10:54:21;101661.69;;;3.19;48.39
32081;BME280;18593;51.426;7.030;2023-03-01T10:56:51;101645.03;;;3.19;47.81
32081;BME280;18593;51.426;7.030;2023-03-01T10:59:24;101641.28;;;3.21;47.79
32081;BME280;18593;51.426;7.030;2023-03-01T11:02:15;101644.50;;;3.25;47.75
32081;BME280;18593;51.426;7.030;2023-03-01T11:04:59;101638.38;;;3.24;47.69
32081;BME280;18593;51.426;7.030;2023-03-01T11:07:26;101644.06;;;3.20;47.43
32081;BME280;18593;51.426;7.030;2023-03-01T11:09:53;101632.53;;;3.21;47.27
32081;BME280;18593;51.426;7.030;2023-03-01T11:12:22;101627.00;;;3.24;47.29
32081;BME280;18593;51.426;7.030;2023-03-01T11:14:50;101622.56;;;3.24;46.91
32081;BME280;18593;51.426;7.030;2023-03-01T11:17:20;101619.69;;;3.27;47.11
32081;BME280;18593;51.426;7.030;2023-03-01T11:20:00;101612.31;;;3.31;47.17
32081;BME280;18593;51.426;7.030;2023-03-01T11:22:28;101617.47;;;3.32;47.38
32081;BME280;18593;51.426;7.030;2023-03-01T11:24:55;101606.09;;;3.32;47.50
32081;BME280;18593;51.426;7.030;2023-03-01T11:27:27;101609.66;;;3.31;47.31
32081;BME280;18593;51.426;7.030;2023-03-01T11:29:57;101622.75;;;3.32;46.89
32081;BME280;18593;51.426;7.030;2023-03-01T11:32:27;101605.22;;;3.31;46.78
32081;BME280;18593;51.426;7.030;2023-03-01T11:34:59;101603.03;;;3.36;46.57
32081;BME280;18593;51.426;7.030;2023-03-01T11:37:35;101610.94;;;3.36;46.59
32081;BME280;18593;51.426;7.030;2023-03-01T11:40:14;101616.19;;;3.36;46.29
32081;BME280;18593;51.426;7.030;2023-03-01T11:42:53;101618.44;;;3.41;46.57
32081;BME280;18593;51.426;7.030;2023-03-01T11:45:23;101615.53;;;3.44;46.97
32081;BME280;18593;51.426;7.030;2023-03-01T11:47:59;101619.44;;;3.50;46.94
32081;BME280;18593;51.426;7.030;2023-03-01T11:50:32;101624.28;;;3.54;47.09
32081;BME280;18593;51.426;7.030;2023-03-01T11:56:03;101625.84;;;3.57;46.46
32081;BME280;18593;51.426;7.030;2023-03-01T11:58:47;101614.00;;;3.61;45.39
32081;BME280;18593;51.426;7.030;2023-03-01T12:01:32;101616.13;;;3.67;46.12
32081;BME280;18593;51.426;7.030;2023-03-01T12:07:14;101600.16;;;3.78;45.62
32081;BME280;18593;51.426;7.030;2023-03-01T12:09:51;101614.31;;;3.77;45.91
32081;BME280;18593;51.426;7.030;2023-03-01T12:12:31;101612.50;;;3.78;46.05
32081;BME280;18593;51.426;7.030;2023-03-01T12:15:18;101606.00;;;3.82;45.71
32081;BME280;18593;51.426;7.030;2023-03-01T12:20:40;101586.13;;;3.87;46.02
32081;BME280;18593;51.426;7.030;2023-03-01T12:23:20;101581.53;;;3.90;45.67
32081;BME280;18593;51.426;7.030;2023-03-01T12:25:53;101577.94;;;3.91;45.97
32081;BME280;18593;51.426;7.030;2023-03-01T12:28:42;101573.50;;;3.91;45.70
32081;BME280;18593;51.426;7.030;2023-03-01T12:31:38;101567.25;;;3.92;46.00
32081;BME280;18593;51.426;7.030;2023-03-01T12:34:24;101570.44;;;3.96;46.52
32081;BME280;18593;51.426;7.030;2023-03-01T12:37:03;101573.34;;;4.02;45.73
32081;BME280;18593;51.426;7.030;2023-03-01T12:39:44;101563.75;;;4.01;45.77
32081;BME280;18593;51.426;7.030;2023-03-01T12:42:22;101568.31;;;3.99;45.49
32081;BME280;18593;51.426;7.030;2023-03-01T12:45:02;101554.84;;;4.02;45.53
32081;BME280;18593;51.426;7.030;2023-03-01T12:47:46;101545.28;;;4.01;45.70
32081;BME280;18593;51.426;7.030;2023-03-01T12:50:21;101543.03;;;4.06;46.04
32081;BME280;18593;51.426;7.030;2023-03-01T12:52:53;101552.06;;;4.13;46.36
32081;BME280;18593;51.426;7.030;2023-03-01T12:55:29;101540.50;;;4.14;45.77
32081;BME280;18593;51.426;7.030;2023-03-01T12:58:03;101543.84;;;4.17;45.86
32081;BME280;18593;51.426;7.030;2023-03-01T13:00:32;101534.28;;;4.16;45.93
32081;BME280;18593;51.426;7.030;2023-03-01T13:03:12;101537.03;;;4.14;45.84
32081;BME280;18593;51.426;7.030;2023-03-01T13:05:47;101549.69;;;4.20;46.08
32081;BME280;18593;51.426;7.030;2023-03-01T13:08:22;101536.19;;;4.23;45.86
32081;BME280;18593;51.426;7.030;2023-03-01T13:10:55;101540.63;;;4.23;45.80
32081;BME280;18593;51.426;7.030;2023-03-01T13:13:24;101532.72;;;4.23;45.48
32081;BME280;18593;51.426;7.030;2023-03-01T13:15:51;101529.91;;;4.24;45.48
32081;BME280;18593;51.426;7.030;2023-03-01T13:18:31;101524.22;;;4.29;46.14
32081;BME280;18593;51.426;7.030;2023-03-01T13:21:01;101522.28;;;4.31;45.31
32081;BME280;18593;51.426;7.030;2023-03-01T13:23:31;101526.16;;;4.36;45.15
32081;BME280;18593;51.426;7.030;2023-03-01T13:26:13;101505.28;;;4.33;44.96